EmailTwitter


Observations de surface / France / LFBO (07630)

Régions: Québec | Canada | États-Unis | Europe | France | UK | Ailleurs
Station
Affichage
Infos & localisation pour LFBO (07630) | Aide pour décoder les METARs

Observations prises le 2018-10-18 à 04H30 UTC à TOULOUSE/BLAGNAC, FR (LFBO)

Température: 15.0 Celsius

Point de rosée: 14.0 Celsius

Humidité relative: 94%

Vents: Sud-ouest à 6 km/h ou 3 noeuds.

Pression au niveau moyen de la mer: 101.40 kilopascals.

Visibilité horizontale: 4.35 milles terrestres ou 6.96 kilomètres.

Observation METAR:

LFBO 180430Z AUTO 22003KT 7000 ///TCU 15/14 Q1014 TEMPO 4000 -RA BKN009 OVC030=